createdAt,value
2023-03-21T06:02:56.869Z,11.40
2023-03-21T06:05:33.783Z,11.40
2023-03-21T06:08:03.779Z,11.40
2023-03-21T06:10:40.772Z,11.39
2023-03-21T06:13:17.830Z,11.40
2023-03-21T06:15:47.931Z,11.39
2023-03-21T06:18:26.835Z,11.42
2023-03-21T06:20:57.584Z,11.40
2023-03-21T06:23:33.862Z,11.42
2023-03-21T06:26:10.822Z,11.40
2023-03-21T06:28:40.884Z,11.43
2023-03-21T06:31:17.872Z,11.42
2023-03-21T06:33:50.537Z,11.44
2023-03-21T06:36:27.856Z,11.46
2023-03-21T06:39:04.857Z,11.46
2023-03-21T06:41:35.022Z,11.42
2023-03-21T06:44:11.827Z,11.46
2023-03-21T06:46:48.973Z,11.45
2023-03-21T06:49:22.140Z,11.51
2023-03-21T06:51:58.909Z,11.52
2023-03-21T06:54:29.131Z,11.50
2023-03-21T06:57:05.876Z,11.50
2023-03-21T06:59:42.863Z,11.51
2023-03-21T07:02:14.105Z,11.54
2023-03-21T07:04:52.837Z,11.55
2023-03-21T07:07:23.074Z,11.55
2023-03-21T07:09:59.851Z,11.58
2023-03-21T07:12:29.913Z,11.61
2023-03-21T07:15:06.931Z,11.64
2023-03-21T07:17:37.054Z,11.65
2023-03-21T07:20:18.883Z,11.68
2023-03-21T07:22:49.016Z,11.67
2023-03-21T07:25:26.877Z,11.71
2023-03-21T07:27:57.173Z,11.71
2023-03-21T07:30:33.923Z,11.73
2023-03-21T07:33:03.968Z,11.73
2023-03-21T07:35:43.988Z,11.73
2023-03-21T07:38:16.846Z,11.68
2023-03-21T07:40:53.877Z,11.73
2023-03-21T07:43:24.073Z,11.73
2023-03-21T07:46:01.003Z,11.71
2023-03-21T07:48:31.944Z,11.75
2023-03-21T07:51:12.904Z,11.73
2023-03-21T07:53:43.887Z,11.75
2023-03-21T07:56:19.943Z,11.74
2023-03-21T07:58:56.930Z,11.80
2023-03-21T08:01:28.181Z,11.80
2023-03-21T08:04:04.970Z,11.76
2023-03-21T08:06:37.578Z,11.79
2023-03-21T08:09:13.934Z,11.79
2023-03-21T08:11:44.066Z,11.82
2023-03-21T08:14:20.964Z,11.92
2023-03-21T08:16:51.092Z,11.92
2023-03-21T08:19:27.979Z,11.94
2023-03-21T08:22:09.057Z,11.92
2023-03-21T08:24:39.200Z,11.95
2023-03-21T08:27:16.034Z,11.94
2023-03-21T08:29:52.933Z,11.97
2023-03-21T08:32:28.454Z,12.01
2023-03-21T08:35:04.995Z,12.01
2023-03-21T08:37:43.983Z,12.06
2023-03-21T08:40:17.135Z,12.01
2023-03-21T08:42:54.027Z,12.07
2023-03-21T08:45:24.540Z,12.07
2023-03-21T08:48:00.997Z,12.10
2023-03-21T08:50:31.844Z,12.07
2023-03-21T08:53:10.996Z,12.14
2023-03-21T08:55:41.253Z,12.20
2023-03-21T08:58:18.054Z,12.24
2023-03-21T09:00:48.140Z,12.30
2023-03-21T09:03:27.022Z,12.42
2023-03-21T09:05:58.426Z,12.44
2023-03-21T09:08:38.016Z,12.39
2023-03-21T09:11:08.838Z,12.40
2023-03-21T09:13:45.055Z,12.41
2023-03-21T09:16:22.100Z,12.49
2023-03-21T09:18:55.823Z,12.62
2023-03-21T09:21:34.077Z,12.70
2023-03-21T09:24:07.366Z,12.68
2023-03-21T09:26:44.103Z,12.81
2023-03-21T09:29:16.036Z,12.90
2023-03-21T09:31:53.043Z,12.68
2023-03-21T09:34:30.067Z,12.95
2023-03-21T09:37:00.119Z,13.03
2023-03-21T09:39:39.121Z,13.05
2023-03-21T09:42:22.877Z,13.20
2023-03-21T09:45:15.116Z,13.24
2023-03-21T09:47:53.241Z,13.13
2023-03-21T09:50:38.143Z,13.42
2023-03-21T09:53:14.964Z,13.44
2023-03-21T09:55:54.082Z,13.54
2023-03-21T09:58:37.152Z,13.70
2023-03-21T10:01:22.430Z,13.76
2023-03-21T10:04:01.241Z,13.89
2023-03-21T10:06:32.220Z,13.95
2023-03-21T10:09:16.145Z,13.98
2023-03-21T10:11:53.408Z,14.13
2023-03-21T10:14:35.128Z,14.10
2023-03-21T10:17:20.615Z,14.05
2023-03-21T10:20:04.139Z,14.16
2023-03-21T10:22:41.102Z,14.20
2023-03-21T10:25:18.015Z,14.17
2023-03-21T10:28:00.120Z,14.25
2023-03-21T10:30:35.210Z,14.17
2023-03-21T10:33:17.159Z,14.36
2023-03-21T10:35:59.197Z,14.49
2023-03-21T10:38:29.614Z,14.33
2023-03-21T10:41:06.092Z,14.47
2023-03-21T10:43:42.177Z,14.56
2023-03-21T10:46:22.253Z,14.64
2023-03-21T10:49:03.283Z,14.64
2023-03-21T10:51:38.543Z,14.63
2023-03-21T10:54:18.109Z,14.69
2023-03-21T10:56:57.070Z,14.78
2023-03-21T10:59:44.221Z,14.77
2023-03-21T11:02:22.561Z,14.76
2023-03-21T11:05:00.444Z,14.84
2023-03-21T11:07:40.165Z,14.98
2023-03-21T11:10:30.466Z,15.00
2023-03-21T11:13:11.217Z,15.15
2023-03-21T11:16:03.218Z,15.05
2023-03-21T11:18:35.009Z,15.16
2023-03-21T11:21:14.224Z,15.13
2023-03-21T11:23:54.206Z,15.25
2023-03-21T11:26:32.817Z,15.29
2023-03-21T11:29:11.205Z,15.44
2023-03-21T11:31:44.983Z,15.57
2023-03-21T11:34:37.270Z,15.71
2023-03-21T11:37:07.834Z,15.89
2023-03-21T11:39:48.285Z,15.99
2023-03-21T11:42:40.252Z,16.02
2023-03-21T11:45:18.223Z,15.97
2023-03-21T11:47:59.272Z,15.98
2023-03-21T11:50:35.756Z,15.86
2023-03-21T11:53:34.298Z,15.70
2023-03-21T11:56:32.275Z,15.72
2023-03-21T11:59:30.844Z,15.70
2023-03-21T12:02:42.324Z,15.69
2023-03-21T12:05:22.778Z,15.67
2023-03-21T12:08:09.282Z,15.72
2023-03-21T12:10:56.300Z,15.78
2023-03-21T12:13:44.249Z,15.94
2023-03-21T12:16:36.376Z,16.16
2023-03-21T12:19:42.389Z,16.24
2023-03-21T12:22:34.259Z,16.67
2023-03-21T12:25:19.288Z,16.87
2023-03-21T12:27:57.685Z,16.98
2023-03-21T12:30:46.321Z,16.96
2023-03-21T12:33:58.310Z,16.82
2023-03-21T12:36:44.158Z,16.72
2023-03-21T12:39:37.278Z,16.75
2023-03-21T12:42:41.669Z,16.79
2023-03-21T12:45:34.218Z,17.08
2023-03-21T12:48:22.557Z,17.14
2023-03-21T12:51:03.296Z,17.26
2023-03-21T12:53:47.761Z,17.20
2023-03-21T12:56:33.312Z,17.18
2023-03-21T12:59:16.858Z,17.17
2023-03-21T13:01:57.421Z,17.24
2023-03-21T13:04:39.839Z,17.14
2023-03-21T13:07:23.368Z,17.01
2023-03-21T13:10:02.450Z,16.98
2023-03-21T13:12:48.383Z,16.81
2023-03-21T13:15:55.437Z,16.72
2023-03-21T13:18:59.245Z,16.57
2023-03-21T13:21:55.338Z,16.41
2023-03-21T13:24:35.328Z,16.37
2023-03-21T13:27:17.418Z,16.29
2023-03-21T13:29:54.662Z,16.18
2023-03-21T13:32:39.412Z,16.11
2023-03-21T13:35:21.303Z,16.15
2023-03-21T13:38:02.406Z,16.21
2023-03-21T13:40:41.292Z,16.32
2023-03-21T13:43:44.366Z,16.30
2023-03-21T13:46:50.566Z,16.38
2023-03-21T13:49:39.413Z,16.45
2023-03-21T13:52:36.417Z,16.50
2023-03-21T13:55:17.624Z,16.59
2023-03-21T13:57:57.410Z,16.50
2023-03-21T14:00:35.138Z,16.43
